createdAt,value
2023-05-14T00:02:08.937Z,94875.88
2023-05-14T00:04:37.578Z,94886.66
2023-05-14T00:07:06.466Z,94884.00
2023-05-14T00:09:35.080Z,94879.13
2023-05-14T00:12:03.717Z,94872.91
2023-05-14T00:14:32.333Z,94871.56
2023-05-14T00:17:01.168Z,94879.13
2023-05-14T00:19:29.692Z,94861.28
2023-05-14T00:21:59.332Z,94865.53
2023-05-14T00:24:27.664Z,94881.72
2023-05-14T00:26:56.262Z,94879.31
2023-05-14T00:29:24.856Z,94878.59
2023-05-14T00:31:53.534Z,94863.03
2023-05-14T00:34:22.383Z,94879.94
2023-05-14T00:36:53.211Z,94853.69
2023-05-14T00:39:21.821Z,94870.81
2023-05-14T00:41:50.058Z,94874.34
2023-05-14T00:44:18.647Z,94877.00
2023-05-14T00:46:47.185Z,94875.81
2023-05-14T00:49:16.257Z,94867.44
2023-05-14T00:51:47.885Z,94881.47
2023-05-14T00:54:17.715Z,94871.25
2023-05-14T00:56:49.566Z,94866.47
2023-05-14T00:59:18.522Z,94864.41
2023-05-14T01:01:47.112Z,94863.03
2023-05-14T01:04:15.668Z,94862.00
2023-05-14T01:07:02.544Z,94867.44
2023-05-14T01:09:59.001Z,94862.22
2023-05-14T01:12:48.640Z,94850.28
2023-05-14T01:15:28.268Z,94847.63
2023-05-14T01:18:06.172Z,94859.81
2023-05-14T01:20:34.473Z,94855.94
2023-05-14T01:23:05.856Z,94861.78
2023-05-14T01:25:35.407Z,94866.06
2023-05-14T01:28:21.450Z,94856.53
2023-05-14T01:31:05.264Z,94841.31
2023-05-14T01:33:36.808Z,94855.66
2023-05-14T01:36:07.394Z,94855.66
2023-05-14T01:38:37.413Z,94857.41
2023-05-14T01:41:06.408Z,94851.84
2023-05-14T01:43:37.177Z,94834.13
2023-05-14T01:46:06.259Z,94855.34
2023-05-14T01:48:34.950Z,94863.84
2023-05-14T01:51:04.006Z,94852.78
2023-05-14T01:53:32.578Z,94851.88
2023-05-14T01:56:01.383Z,94856.78
2023-05-14T01:58:30.015Z,94860.09
2023-05-14T02:00:58.868Z,94851.34
2023-05-14T02:03:27.734Z,94867.94
2023-05-14T02:05:56.468Z,94868.91
2023-05-14T02:08:24.775Z,94850.66
2023-05-14T02:10:53.404Z,94861.31
2023-05-14T02:13:21.760Z,94855.59
2023-05-14T02:15:51.432Z,94839.56
2023-05-14T02:18:20.320Z,94851.88
2023-05-14T02:20:48.691Z,94868.03
2023-05-14T02:23:17.313Z,94843.34
2023-05-14T02:25:46.286Z,94853.50
2023-05-14T02:28:14.880Z,94838.25
2023-05-14T02:30:44.418Z,94859.16
2023-05-14T02:33:12.959Z,94836.84
2023-05-14T02:35:41.600Z,94861.66
2023-05-14T02:38:10.810Z,94845.56
2023-05-14T02:40:39.688Z,94866.00
2023-05-14T02:43:08.418Z,94859.91
2023-05-14T02:45:37.516Z,94864.09
2023-05-14T02:48:06.199Z,94844.06
2023-05-14T02:50:34.889Z,94871.69
2023-05-14T02:53:03.588Z,94856.38
2023-05-14T02:55:32.475Z,94880.41
2023-05-14T02:58:00.887Z,94883.72
2023-05-14T03:00:29.091Z,94857.69
2023-05-14T03:02:58.372Z,94880.13
2023-05-14T03:05:27.593Z,94869.44
2023-05-14T03:07:56.270Z,94885.66
2023-05-14T03:10:25.212Z,94873.66
2023-05-14T03:12:55.080Z,94890.81
2023-05-14T03:15:23.723Z,94887.63
2023-05-14T03:17:52.376Z,94873.31
2023-05-14T03:20:21.312Z,94869.59
2023-05-14T03:22:50.158Z,94884.91
2023-05-14T03:25:18.928Z,94898.28
2023-05-14T03:27:47.546Z,94895.56
2023-05-14T03:30:17.068Z,94876.91
2023-05-14T03:32:46.251Z,94904.34
2023-05-14T03:35:15.830Z,94890.00
2023-05-14T03:37:44.366Z,94910.56
2023-05-14T03:40:12.855Z,94912.19
2023-05-14T03:42:41.144Z,94915.72
2023-05-14T03:45:10.283Z,94913.31
2023-05-14T03:47:39.003Z,94913.34
2023-05-14T03:50:08.811Z,94906.47
2023-05-14T03:52:37.573Z,94928.19
2023-05-14T03:55:06.240Z,94932.13
2023-05-14T03:57:34.790Z,94940.16
2023-05-14T04:00:03.758Z,94940.38
2023-05-14T04:02:32.825Z,94941.94
2023-05-14T04:05:01.730Z,94951.50
2023-05-14T04:07:29.633Z,94942.09
2023-05-14T04:09:58.523Z,94946.31
2023-05-14T04:12:28.124Z,94938.56
2023-05-14T04:14:58.697Z,94950.50
2023-05-14T04:17:27.577Z,94952.44
2023-05-14T04:19:56.193Z,94929.75
2023-05-14T04:22:24.935Z,94959.69
2023-05-14T04:24:54.279Z,94953.78
2023-05-14T04:27:23.170Z,94961.91
2023-05-14T04:29:52.265Z,94932.19
2023-05-14T04:32:21.097Z,94950.25
2023-05-14T04:34:49.748Z,94946.47
2023-05-14T04:37:18.070Z,94958.38
2023-05-14T04:39:46.661Z,94929.97
2023-05-14T04:42:15.231Z,94951.69
2023-05-14T04:44:43.801Z,94951.69
2023-05-14T04:47:12.629Z,94940.31
2023-05-14T04:49:41.628Z,94933.06
2023-05-14T04:52:10.485Z,94955.38
2023-05-14T04:54:39.107Z,94961.00
2023-05-14T04:57:07.892Z,94957.78
2023-05-14T04:59:37.002Z,94956.09
2023-05-14T05:02:06.051Z,94943.94
2023-05-14T05:04:34.680Z,94944.28
2023-05-14T05:07:03.440Z,94948.34
2023-05-14T05:09:32.489Z,94948.63
2023-05-14T05:12:02.899Z,94968.63
2023-05-14T05:14:31.322Z,94975.25
2023-05-14T05:16:59.869Z,94971.31
2023-05-14T05:19:42.482Z,94963.28
2023-05-14T05:22:12.811Z,94967.50
2023-05-14T05:24:41.011Z,94953.50
2023-05-14T05:27:09.188Z,94951.72
2023-05-14T05:29:38.055Z,94982.03
2023-05-14T05:32:07.257Z,94976.53
2023-05-14T05:34:35.983Z,94975.88
2023-05-14T05:37:04.358Z,94976.72
2023-05-14T05:39:36.055Z,94974.69
2023-05-14T05:42:05.064Z,94980.25
2023-05-14T05:44:33.791Z,94976.72
2023-05-14T05:47:02.634Z,94977.03
2023-05-14T05:49:31.348Z,94962.69
2023-05-14T05:52:00.920Z,94979.16
2023-05-14T05:54:29.436Z,94976.59
2023-05-14T05:56:58.173Z,94945.00
2023-05-14T05:59:26.898Z,94949.19
2023-05-14T06:01:58.523Z,94980.16
2023-05-14T06:04:27.265Z,94986.63
2023-05-14T06:06:55.892Z,94988.91
2023-05-14T06:09:24.247Z,94983.22
2023-05-14T06:11:52.844Z,94985.66
2023-05-14T06:14:21.442Z,94995.44
2023-05-14T06:16:50.227Z,94999.13
2023-05-14T06:19:18.846Z,94977.69
2023-05-14T06:21:47.112Z,94989.75
2023-05-14T06:24:15.748Z,94999.25
2023-05-14T06:26:44.356Z,94993.44
2023-05-14T06:29:12.870Z,94974.09
2023-05-14T06:31:41.137Z,94971.81
2023-05-14T06:34:10.522Z,94993.81
2023-05-14T06:36:39.107Z,94975.78
2023-05-14T06:39:07.991Z,94994.38
2023-05-14T06:41:35.951Z,95000.16
2023-05-14T06:44:05.054Z,95005.66
2023-05-14T06:46:33.160Z,95003.59
2023-05-14T06:49:01.818Z,95005.25
2023-05-14T06:51:30.226Z,95002.63
2023-05-14T06:53:58.782Z,94981.66
2023-05-14T06:56:27.391Z,95003.44
2023-05-14T06:58:56.016Z,95006.34
2023-05-14T07:01:24.934Z,95002.69
2023-05-14T07:03:53.559Z,95001.84
2023-05-14T07:06:22.827Z,95005.31
2023-05-14T07:08:51.510Z,94988.50
2023-05-14T07:11:20.146Z,95008.47
2023-05-14T07:13:48.704Z,95004.28
2023-05-14T07:16:17.298Z,95000.34
2023-05-14T07:18:46.577Z,95012.44
2023-05-14T07:21:15.154Z,94996.75
2023-05-14T07:23:43.731Z,95011.94
2023-05-14T07:26:12.545Z,95016.94
2023-05-14T07:28:41.131Z,95020.63
2023-05-14T07:31:10.324Z,95022.25
2023-05-14T07:33:40.183Z,95018.06
2023-05-14T07:36:10.077Z,95006.03
2023-05-14T07:38:38.750Z,95027.00
2023-05-14T07:41:07.442Z,95020.97
2023-05-14T07:43:36.059Z,95024.91
2023-05-14T07:46:04.358Z,94999.78
2023-05-14T07:48:32.593Z,95005.06
2023-05-14T07:51:01.785Z,95032.59
2023-05-14T07:53:30.803Z,95031.78
2023-05-14T07:56:01.386Z,95035.22
2023-05-14T07:58:30.299Z,95016.88
2023-05-14T08:00:58.932Z,95016.63
2023-05-14T08:03:28.429Z,95016.63
2023-05-14T08:05:58.720Z,95039.69
2023-05-14T08:08:28.776Z,95040.22
2023-05-14T08:10:57.427Z,95042.84
2023-05-14T08:13:25.381Z,95037.63
2023-05-14T08:15:54.115Z,95037.59
2023-05-14T08:18:22.845Z,95036.53
2023-05-14T08:20:51.447Z,95044.19
2023-05-14T08:23:20.081Z,95033.91
2023-05-14T08:25:48.721Z,95052.03
2023-05-14T08:28:17.392Z,95041.53
2023-05-14T08:30:45.751Z,95044.41
2023-05-14T08:33:15.289Z,95047.03
2023-05-14T08:35:43.928Z,95037.84
2023-05-14T08:38:12.846Z,95049.91
2023-05-14T08:40:41.629Z,95056.19
2023-05-14T08:43:13.230Z,95050.16
2023-05-14T08:45:42.760Z,95030.19
2023-05-14T08:48:16.519Z,95061.16
2023-05-14T08:50:45.896Z,95059.56
2023-05-14T08:53:14.626Z,95034.63
2023-05-14T08:55:44.509Z,95055.09
2023-05-14T08:58:13.257Z,95053.25
2023-05-14T09:00:43.654Z,95049.31
2023-05-14T09:03:13.909Z,95058.72
2023-05-14T09:05:43.042Z,95046.66
2023-05-14T09:08:11.668Z,95035.34
2023-05-14T09:10:41.702Z,95055.53
2023-05-14T09:13:11.254Z,95045.56
2023-05-14T09:15:42.770Z,95054.66
2023-05-14T09:18:12.933Z,95058.84
2023-05-14T09:20:41.640Z,95053.03
2023-05-14T09:23:10.111Z,95061.09
2023-05-14T09:25:38.677Z,95053.75
2023-05-14T09:28:13.386Z,95025.69
2023-05-14T09:30:42.052Z,95030.13
2023-05-14T09:33:11.385Z,95048.50
2023-05-14T09:35:42.712Z,95041.84
2023-05-14T09:38:10.704Z,95058.66
2023-05-14T09:40:39.711Z,95035.47
2023-05-14T09:43:07.812Z,95057.28
2023-05-14T09:45:36.567Z,95056.47
2023-05-14T09:48:05.121Z,95058.78
2023-05-14T09:50:33.859Z,95063.97
2023-05-14T09:53:02.734Z,95056.88
2023-05-14T09:55:32.702Z,95050.00
2023-05-14T09:58:01.245Z,95053.63
2023-05-14T10:00:30.660Z,95059.34
2023-05-14T10:03:00.779Z,95054.38
2023-05-14T10:05:30.428Z,95052.75
2023-05-14T10:08:03.472Z,95047.63
2023-05-14T10:10:32.290Z,95063.97
2023-05-14T10:13:05.867Z,95060.19
2023-05-14T10:16:08.382Z,95061.50
2023-05-14T10:18:47.236Z,95069.56
2023-05-14T10:21:17.873Z,95068.78
2023-05-14T10:23:47.469Z,95071.31
2023-05-14T10:26:16.837Z,95067.91
2023-05-14T10:28:46.272Z,95074.72
2023-05-14T10:31:14.925Z,95065.66
2023-05-14T10:33:51.765Z,95059.78
2023-05-14T10:36:20.573Z,95082.66
2023-05-14T10:38:56.793Z,95074.72
2023-05-14T10:41:26.561Z,95073.63
2023-05-14T10:43:55.524Z,95065.38
2023-05-14T10:46:24.184Z,95076.97
2023-05-14T10:48:52.812Z,95079.22
2023-05-14T10:51:23.965Z,95076.25
2023-05-14T10:53:54.144Z,95073.84
2023-05-14T10:56:23.708Z,95083.44
2023-05-14T10:58:52.584Z,95087.06
2023-05-14T11:01:26.907Z,95084.72
2023-05-14T11:03:57.247Z,95065.88
2023-05-14T11:06:28.981Z,95085.84
2023-05-14T11:08:57.705Z,95084.75
2023-05-14T11:11:27.652Z,95081.84
2023-05-14T11:13:56.902Z,95079.09
2023-05-14T11:16:30.550Z,95078.00
2023-05-14T11:19:06.893Z,95082.13
2023-05-14T11:21:35.609Z,95074.69
2023-05-14T11:24:06.374Z,95081.16
2023-05-14T11:26:35.840Z,95082.69
2023-05-14T11:29:04.515Z,95084.97
2023-05-14T11:31:33.235Z,95084.66
2023-05-14T11:34:02.666Z,95085.69
2023-05-14T11:36:31.268Z,95090.03
2023-05-14T11:38:59.841Z,95089.50
2023-05-14T11:41:29.541Z,95095.66
2023-05-14T11:43:57.895Z,95096.94
2023-05-14T11:46:27.512Z,95089.09
2023-05-14T11:48:57.139Z,95083.50
2023-05-14T11:51:25.523Z,95089.75
2023-05-14T11:53:55.908Z,95065.72
2023-05-14T11:56:24.492Z,95085.94
2023-05-14T11:59:00.160Z,95057.03
2023-05-14T12:01:30.250Z,95088.78
2023-05-14T12:03:58.977Z,95084.38
2023-05-14T12:06:35.461Z,95067.63
2023-05-14T12:09:07.215Z,95062.63
2023-05-14T12:11:38.280Z,95096.06
2023-05-14T12:14:16.499Z,95060.97
2023-05-14T12:16:48.574Z,95093.84
2023-05-14T12:19:19.588Z,95081.66
2023-05-14T12:21:52.505Z,95102.44
2023-05-14T12:24:21.481Z,95102.91
2023-05-14T12:26:51.391Z,95101.41
2023-05-14T12:29:19.924Z,95074.78
2023-05-14T12:31:50.083Z,95075.34
2023-05-14T12:34:19.109Z,95085.84
2023-05-14T12:36:47.713Z,95110.19
2023-05-14T12:39:16.387Z,95112.00
2023-05-14T12:41:45.356Z,95113.66
2023-05-14T12:44:13.708Z,95104.03
2023-05-14T12:46:42.408Z,95105.69
2023-05-14T12:49:10.959Z,95109.66
2023-05-14T12:51:39.512Z,95109.72
2023-05-14T12:54:08.059Z,95107.44
2023-05-14T12:56:39.200Z,95101.75
2023-05-14T12:59:07.977Z,95103.63
2023-05-14T13:01:36.886Z,95101.88
2023-05-14T13:04:06.912Z,95100.94
2023-05-14T13:06:35.538Z,95109.31
2023-05-14T13:09:04.734Z,95083.56
2023-05-14T13:11:33.560Z,95111.50
2023-05-14T13:14:03.286Z,95114.47
2023-05-14T13:16:33.044Z,95108.59
2023-05-14T13:19:01.962Z,95115.47
2023-05-14T13:21:31.559Z,95104.06
2023-05-14T13:24:00.189Z,95108.31
2023-05-14T13:26:29.695Z,95111.06
2023-05-14T13:28:57.856Z,95107.97
2023-05-14T13:31:25.982Z,95093.81
2023-05-14T13:33:54.815Z,95114.09
2023-05-14T13:36:23.278Z,95109.28
2023-05-14T13:38:51.892Z,95082.34
2023-05-14T13:41:20.503Z,95111.59
2023-05-14T13:43:49.188Z,95082.25
2023-05-14T13:46:17.791Z,95108.63
2023-05-14T13:48:46.400Z,95113.97
2023-05-14T13:51:15.116Z,95113.41
2023-05-14T13:53:44.591Z,95109.34
2023-05-14T13:56:13.103Z,95106.81
2023-05-14T13:58:41.867Z,95098.75
2023-05-14T14:01:10.559Z,95117.28
2023-05-14T14:03:39.342Z,95118.38
2023-05-14T14:06:08.257Z,95121.59
2023-05-14T14:08:37.278Z,95124.84
2023-05-14T14:11:06.166Z,95113.66
2023-05-14T14:13:34.409Z,95115.06
2023-05-14T14:16:04.535Z,95096.72
2023-05-14T14:18:33.224Z,95110.97
2023-05-14T14:21:01.822Z,95114.69
2023-05-14T14:23:30.240Z,95118.09
2023-05-14T14:25:59.443Z,95126.50
2023-05-14T14:28:28.137Z,95091.63
2023-05-14T14:30:56.796Z,95119.75
2023-05-14T14:33:25.340Z,95116.59
2023-05-14T14:35:53.952Z,95093.50
2023-05-14T14:38:22.630Z,95116.84
2023-05-14T14:40:50.830Z,95117.88
2023-05-14T14:43:20.351Z,95125.75
2023-05-14T14:45:49.844Z,95082.44
2023-05-14T14:48:27.575Z,95122.03
2023-05-14T14:50:57.214Z,95110.72
2023-05-14T14:53:26.369Z,95132.75
2023-05-14T14:55:55.156Z,95127.75
2023-05-14T14:58:24.329Z,95132.19
2023-05-14T15:00:55.238Z,95121.38
2023-05-14T15:03:24.482Z,95127.34
2023-05-14T15:05:54.647Z,95100.34
2023-05-14T15:08:27.731Z,95118.06
2023-05-14T15:10:59.407Z,95104.63
2023-05-14T15:13:27.777Z,95122.09
2023-05-14T15:15:56.380Z,95127.59
2023-05-14T15:18:25.083Z,95126.78
2023-05-14T15:20:54.237Z,95127.13
2023-05-14T15:23:23.687Z,95123.34
2023-05-14T15:25:52.625Z,95127.47
2023-05-14T15:28:21.315Z,95122.63
2023-05-14T15:30:50.260Z,95123.53
2023-05-14T15:33:20.613Z,95113.97
2023-05-14T15:35:49.211Z,95092.00
2023-05-14T15:38:17.791Z,95116.06
2023-05-14T15:40:46.552Z,95111.94
2023-05-14T15:43:15.192Z,95099.19
2023-05-14T15:45:47.493Z,95107.69
2023-05-14T15:48:16.240Z,95101.75
2023-05-14T15:50:45.466Z,95101.81
2023-05-14T15:53:14.727Z,95100.91
2023-05-14T15:55:42.970Z,95079.19
2023-05-14T15:58:11.596Z,95094.78
2023-05-14T16:00:40.911Z,95092.22
2023-05-14T16:03:09.528Z,95094.06
2023-05-14T16:05:38.393Z,95069.88
2023-05-14T16:08:07.649Z,95094.91
2023-05-14T16:10:36.318Z,95086.69
2023-05-14T16:13:05.027Z,95078.91
2023-05-14T16:15:33.694Z,95093.25
2023-05-14T16:18:02.615Z,95083.50
2023-05-14T16:20:31.209Z,95081.78
2023-05-14T16:22:59.765Z,95066.97
2023-05-14T16:25:28.348Z,95077.97
2023-05-14T16:27:56.984Z,95060.75
2023-05-14T16:30:25.461Z,95051.47
2023-05-14T16:32:57.152Z,95080.94
2023-05-14T16:35:25.833Z,95072.91
2023-05-14T16:37:54.527Z,95069.31
2023-05-14T16:40:27.228Z,95067.59
2023-05-14T16:42:55.900Z,95070.97
2023-05-14T16:45:24.276Z,95063.19
2023-05-14T16:47:53.084Z,95070.94
2023-05-14T16:50:22.238Z,95044.38
2023-05-14T16:52:50.812Z,95070.03
2023-05-14T16:55:21.095Z,95053.16
2023-05-14T16:57:49.872Z,95034.72
2023-05-14T17:00:19.255Z,95054.56
2023-05-14T17:02:51.153Z,95035.28
2023-05-14T17:05:19.792Z,95063.13
2023-05-14T17:07:49.326Z,95059.72
2023-05-14T17:10:18.406Z,95066.91
2023-05-14T17:12:48.120Z,95042.81
2023-05-14T17:15:16.708Z,95042.63
2023-05-14T17:17:45.016Z,95058.44
2023-05-14T17:20:15.930Z,95045.00
2023-05-14T17:22:45.680Z,95049.31
2023-05-14T17:25:14.440Z,95042.56
2023-05-14T17:27:42.413Z,95044.34
2023-05-14T17:30:11.482Z,95041.66
2023-05-14T17:32:40.137Z,95037.41
2023-05-14T17:35:11.183Z,95044.25
2023-05-14T17:37:39.794Z,95037.47
2023-05-14T17:40:08.970Z,95043.00
2023-05-14T17:42:37.605Z,95016.34
2023-05-14T17:45:06.707Z,95037.25
2023-05-14T17:47:35.389Z,95022.19
2023-05-14T17:50:04.048Z,95035.47
2023-05-14T17:52:32.413Z,95018.44
2023-05-14T17:55:00.365Z,95023.78
2023-05-14T17:57:29.088Z,95031.50
2023-05-14T17:59:57.842Z,95027.66
2023-05-14T18:02:26.642Z,95007.28
2023-05-14T18:04:55.566Z,95022.28
2023-05-14T18:07:24.518Z,95017.66
2023-05-14T18:09:53.143Z,95020.88
2023-05-14T18:12:21.395Z,95025.69
2023-05-14T18:14:50.105Z,95020.88
2023-05-14T18:17:18.974Z,94995.91
2023-05-14T18:19:47.573Z,95025.84
2023-05-14T18:22:16.804Z,95014.44
2023-05-14T18:24:45.459Z,95007.84
2023-05-14T18:27:14.093Z,95008.22
2023-05-14T18:29:43.449Z,94990.94
2023-05-14T18:32:12.123Z,95001.28
2023-05-14T18:34:40.716Z,94990.09
2023-05-14T18:37:10.075Z,94999.84
2023-05-14T18:39:38.841Z,94981.16
2023-05-14T18:42:07.708Z,94987.06
2023-05-14T18:44:36.345Z,94994.41
2023-05-14T18:47:05.140Z,94973.06
2023-05-14T18:49:33.293Z,94985.91
2023-05-14T18:52:01.831Z,94982.75
2023-05-14T18:54:30.339Z,94975.19
2023-05-14T18:56:59.122Z,94964.25
2023-05-14T18:59:28.010Z,94959.81
2023-05-14T19:01:56.744Z,94972.16
2023-05-14T19:04:25.443Z,94953.47
2023-05-14T19:06:54.254Z,94975.41
2023-05-14T19:09:24.047Z,94968.72
2023-05-14T19:11:53.664Z,94957.75
2023-05-14T19:14:22.388Z,94961.91
2023-05-14T19:16:50.863Z,94950.31
2023-05-14T19:19:19.269Z,94949.16
2023-05-14T19:21:48.876Z,94933.19
2023-05-14T19:24:17.082Z,94930.84
2023-05-14T19:26:45.950Z,94931.41
2023-05-14T19:29:14.715Z,94920.50
2023-05-14T19:31:43.430Z,94942.66
2023-05-14T19:34:12.116Z,94942.88
2023-05-14T19:36:40.861Z,94932.00
2023-05-14T19:39:08.793Z,94942.16
2023-05-14T19:41:37.372Z,94926.34
2023-05-14T19:44:06.024Z,94939.97
2023-05-14T19:46:34.276Z,94929.59
2023-05-14T19:49:02.929Z,94916.72
2023-05-14T19:51:30.902Z,94929.81
2023-05-14T19:53:59.539Z,94926.47
2023-05-14T19:56:28.878Z,94924.91
2023-05-14T19:58:57.470Z,94917.31
2023-05-14T20:01:25.846Z,94900.31
2023-05-14T20:03:54.031Z,94924.72
2023-05-14T20:06:22.429Z,94915.06
2023-05-14T20:08:52.560Z,94902.63
2023-05-14T20:11:21.225Z,94918.63
2023-05-14T20:13:50.791Z,94896.69
2023-05-14T20:16:19.963Z,94910.75
2023-05-14T20:18:48.647Z,94912.72
2023-05-14T20:21:16.911Z,94912.63
2023-05-14T20:23:45.205Z,94909.50
2023-05-14T20:26:13.853Z,94909.50
2023-05-14T20:28:44.698Z,94901.41
2023-05-14T20:31:12.953Z,94902.06
2023-05-14T20:33:41.584Z,94902.06
2023-05-14T20:36:10.140Z,94878.06
2023-05-14T20:38:38.793Z,94894.28
2023-05-14T20:41:07.404Z,94888.28
2023-05-14T20:43:35.991Z,94894.06
2023-05-14T20:46:06.840Z,94890.72
2023-05-14T20:48:34.883Z,94893.66
2023-05-14T20:51:06.190Z,94885.66
2023-05-14T20:53:35.399Z,94886.38
2023-05-14T20:56:04.010Z,94862.50
2023-05-14T20:58:32.538Z,94866.50
2023-05-14T21:01:01.186Z,94873.50
2023-05-14T21:03:29.964Z,94879.06
2023-05-14T21:05:59.209Z,94877.16
2023-05-14T21:08:28.948Z,94850.16
2023-05-14T21:10:57.280Z,94847.59
2023-05-14T21:13:25.323Z,94866.09
2023-05-14T21:15:54.188Z,94863.72
2023-05-14T21:18:22.885Z,94855.19
2023-05-14T21:20:51.082Z,94854.97
2023-05-14T21:23:20.944Z,94856.28
2023-05-14T21:25:49.104Z,94854.94
2023-05-14T21:28:17.727Z,94838.94
2023-05-14T21:30:46.270Z,94826.72
2023-05-14T21:33:14.845Z,94836.94
2023-05-14T21:35:44.260Z,94849.84
2023-05-14T21:38:13.341Z,94854.28
2023-05-14T21:40:41.543Z,94845.63
2023-05-14T21:43:10.172Z,94846.75
2023-05-14T21:45:38.851Z,94848.38
2023-05-14T21:48:08.297Z,94842.47
2023-05-14T21:50:36.960Z,94827.16
2023-05-14T21:53:05.629Z,94805.28
2023-05-14T21:55:33.661Z,94828.50
2023-05-14T21:58:02.297Z,94816.13
2023-05-14T22:00:31.219Z,94809.78
2023-05-14T22:03:00.455Z,94810.03
2023-05-14T22:05:29.280Z,94795.38
2023-05-14T22:07:58.372Z,94807.56
2023-05-14T22:10:27.007Z,94785.38
2023-05-14T22:12:55.693Z,94803.63
2023-05-14T22:15:24.262Z,94794.72
2023-05-14T22:17:53.058Z,94782.16
2023-05-14T22:20:21.662Z,94797.38
2023-05-14T22:22:51.250Z,94800.94
2023-05-14T22:25:19.853Z,94800.94
2023-05-14T22:27:48.433Z,94795.50
2023-05-14T22:30:17.092Z,94789.16
2023-05-14T22:32:45.754Z,94784.00
2023-05-14T22:35:15.337Z,94782.25
2023-05-14T22:37:43.948Z,94768.03
2023-05-14T22:40:14.810Z,94772.22
2023-05-14T22:42:43.497Z,94764.56
2023-05-14T22:45:12.448Z,94776.19
2023-05-14T22:47:41.030Z,94751.56
2023-05-14T22:50:13.052Z,94746.09
2023-05-14T22:52:42.552Z,94753.09
2023-05-14T22:55:11.252Z,94765.72
2023-05-14T22:57:40.423Z,94762.63
2023-05-14T23:00:09.717Z,94758.97
2023-05-14T23:02:38.479Z,94758.53
2023-05-14T23:05:08.184Z,94756.09
2023-05-14T23:07:37.192Z,94750.31
2023-05-14T23:10:08.949Z,94748.13
2023-05-14T23:12:37.713Z,94739.22
2023-05-14T23:15:07.776Z,94744.59
2023-05-14T23:17:36.401Z,94724.25
2023-05-14T23:20:06.993Z,94724.56
2023-05-14T23:22:35.618Z,94730.94
2023-05-14T23:25:03.935Z,94718.03
2023-05-14T23:27:32.757Z,94728.56
2023-05-14T23:30:01.331Z,94734.72
2023-05-14T23:32:29.990Z,94710.16
2023-05-14T23:34:58.666Z,94724.69
2023-05-14T23:37:27.260Z,94710.47
2023-05-14T23:39:55.906Z,94701.50
2023-05-14T23:42:24.639Z,94722.25
2023-05-14T23:44:53.224Z,94722.03
2023-05-14T23:47:22.188Z,94713.25
2023-05-14T23:49:50.792Z,94711.94
2023-05-14T23:52:19.323Z,94708.81
2023-05-14T23:54:47.942Z,94693.06
2023-05-14T23:57:16.701Z,94693.25
2023-05-14T23:59:45.345Z,94701.81
